Time;durP1;ratioP1;P1;durP2;ratioP2;P2;SDS_P1;SDS_P2;PMS_P1;PMS_P2;Temp;Humidity;BMP_temperature;BMP_pressure;BME280_temperature;BME280_humidity;BME280_pressure;Samples;Min_cycle;Max_cycle;Signal;HPM_P1;HPM_P2
2023/04/30 00:00:11;;;;;;;6.37;2.20;;;9.30;99.90;;;;;;5077399;28;20468;-66
2023/04/30 00:02:38;;;;;;;6.13;2.00;;;9.30;99.90;;;;;;5077485;28;20454;-67
2023/04/30 00:05:06;;;;;;;7.87;3.13;;;9.20;99.90;;;;;;5077124;28;20461;-68
2023/04/30 00:07:32;;;;;;;4.53;1.90;;;9.10;99.90;;;;;;5077323;28;20766;-67
2023/04/30 00:10:01;;;;;;;7.63;2.60;;;9.10;99.90;;;;;;5077449;28;20466;-66
2023/04/30 00:12:28;;;;;;;3.70;2.03;;;9.00;99.90;;;;;;5077841;28;20540;-67
2023/04/30 00:14:55;;;;;;;3.77;2.10;;;9.00;99.90;;;;;;5077276;28;20545;-67
2023/04/30 00:17:22;;;;;;;4.50;2.20;;;9.00;99.90;;;;;;5077017;28;20469;-68
2023/04/30 00:19:49;;;;;;;5.10;2.47;;;9.00;99.90;;;;;;5077735;28;20454;-68
2023/04/30 00:22:16;;;;;;;4.63;2.40;;;9.00;99.90;;;;;;5077405;28;20466;-67
2023/04/30 00:24:43;;;;;;;4.57;2.30;;;9.00;99.90;;;;;;5077332;28;20469;-67
2023/04/30 00:27:11;;;;;;;7.93;2.43;;;8.90;99.90;;;;;;5077368;28;20846;-67
2023/04/30 00:29:38;;;;;;;7.70;2.03;;;8.90;99.90;;;;;;5077049;28;20480;-67
2023/04/30 00:32:06;;;;;;;3.60;1.77;;;8.90;99.90;;;;;;5077061;28;20454;-67
2023/04/30 00:34:32;;;;;;;4.17;1.97;;;8.90;99.90;;;;;;5076902;28;20469;-68
2023/04/30 00:36:59;;;;;;;7.63;2.60;;;8.80;99.90;;;;;;5076741;28;20474;-67
2023/04/30 00:39:26;;;;;;;8.90;2.10;;;8.70;99.90;;;;;;5076352;28;20954;-68
2023/04/30 00:41:53;;;;;;;6.60;2.57;;;8.60;99.90;;;;;;5077270;28;20454;-67
2023/04/30 00:44:21;;;;;;;3.87;2.17;;;8.60;99.90;;;;;;5076044;28;20787;-66
2023/04/30 00:46:48;;;;;;;4.87;2.00;;;8.60;99.90;;;;;;5076706;28;20982;-67
2023/04/30 00:49:15;;;;;;;3.10;2.17;;;8.60;99.90;;;;;;5077246;28;20450;-67
2023/04/30 00:51:42;;;;;;;4.10;2.70;;;8.50;99.90;;;;;;5077276;28;20485;-67
2023/04/30 00:54:09;;;;;;;6.57;2.50;;;8.40;99.90;;;;;;5076873;28;20526;-67
2023/04/30 00:56:36;;;;;;;3.43;2.80;;;8.40;99.90;;;;;;5076782;28;20593;-68
2023/04/30 00:59:03;;;;;;;9.47;2.80;;;8.40;99.90;;;;;;5076700;28;20545;-67
2023/04/30 01:01:31;;;;;;;6.60;2.93;;;8.40;99.90;;;;;;5076584;28;20455;-68
2023/04/30 01:03:59;;;;;;;5.10;2.73;;;8.40;99.90;;;;;;5076720;28;20465;-67
2023/04/30 01:06:27;;;;;;;3.10;2.40;;;8.50;99.90;;;;;;5076678;28;20454;-68
2023/04/30 01:08:56;;;;;;;5.07;2.20;;;8.50;99.90;;;;;;5076111;28;20454;-66
2023/04/30 01:11:32;;;;;;;4.83;1.87;;;8.50;99.90;;;;;;5076512;28;20990;-67
2023/04/30 01:14:04;;;;;;;5.17;2.90;;;8.50;99.90;;;;;;5076119;28;20438;-68
2023/04/30 01:16:38;;;;;;;6.80;2.70;;;8.40;99.90;;;;;;5076467;28;20570;-67
2023/04/30 01:19:11;;;;;;;3.73;2.27;;;8.30;99.90;;;;;;5076402;28;20434;-67
2023/04/30 01:21:41;;;;;;;6.17;2.30;;;8.30;99.90;;;;;;5076705;28;20893;-67
2023/04/30 01:24:24;;;;;;;5.43;2.00;;;8.30;99.90;;;;;;5076005;28;20465;-67
2023/04/30 01:27:06;;;;;;;7.10;2.70;;;8.40;99.90;;;;;;5076917;28;20442;-68
2023/04/30 01:29:36;;;;;;;4.70;2.63;;;8.40;99.90;;;;;;5077065;28;20447;-67
2023/04/30 01:32:03;;;;;;;8.23;2.77;;;8.40;99.90;;;;;;5076860;28;20501;-67
2023/04/30 01:34:30;;;;;;;4.83;2.70;;;8.30;99.90;;;;;;5076600;28;20467;-66
2023/04/30 01:37:14;;;;;;;7.27;2.70;;;8.20;99.90;;;;;;5076735;28;20514;-68
2023/04/30 01:39:56;;;;;;;8.40;2.80;;;8.20;99.90;;;;;;5075923;28;20561;-68
2023/04/30 01:42:30;;;;;;;6.03;2.27;;;8.20;99.90;;;;;;5076733;28;20503;-67
2023/04/30 01:45:18;;;;;;;6.53;3.07;;;8.10;99.90;;;;;;5076770;28;20438;-67
2023/04/30 01:47:52;;;;;;;5.73;2.83;;;8.10;99.90;;;;;;5076707;28;20512;-66
2023/04/30 01:50:28;;;;;;;5.40;3.03;;;8.10;99.90;;;;;;5076187;28;20883;-66
2023/04/30 01:52:58;;;;;;;8.00;3.90;;;8.00;99.90;;;;;;5075962;28;20438;-67
2023/04/30 01:55:30;;;;;;;5.13;2.37;;;8.10;99.90;;;;;;5075015;28;20458;-68
2023/04/30 01:57:58;;;;;;;5.13;3.00;;;8.00;99.90;;;;;;5075130;28;20446;-67
2023/04/30 02:00:29;;;;;;;7.70;2.40;;;7.90;99.90;;;;;;5075244;28;20490;-68
2023/04/30 02:02:56;;;;;;;13.77;3.20;;;7.90;99.90;;;;;;5075159;28;20537;-68
2023/04/30 02:05:23;;;;;;;4.00;2.73;;;7.80;99.90;;;;;;5075506;28;20468;-67
2023/04/30 02:07:51;;;;;;;7.70;3.90;;;7.80;99.90;;;;;;5076066;28;20458;-66
2023/04/30 02:10:20;;;;;;;8.47;2.77;;;7.90;99.90;;;;;;5076243;28;20454;-66
2023/04/30 02:12:47;;;;;;;5.47;2.77;;;7.90;99.90;;;;;;5076094;28;20846;-68
2023/04/30 02:15:14;;;;;;;7.77;2.73;;;7.80;99.90;;;;;;5075185;28;20911;-68
2023/04/30 02:17:42;;;;;;;7.83;3.50;;;7.70;99.90;;;;;;5075082;28;20450;-68
2023/04/30 02:20:10;;;;;;;9.77;3.33;;;7.70;99.90;;;;;;5075113;28;20923;-67
2023/04/30 02:22:37;;;;;;;9.87;3.00;;;7.70;99.90;;;;;;5075282;28;20450;-67
2023/04/30 02:25:05;;;;;;;5.30;3.00;;;7.70;99.90;;;;;;5075277;28;20465;-67
2023/04/30 02:27:33;;;;;;;18.10;3.97;;;7.70;99.90;;;;;;5075363;28;20454;-67
2023/04/30 02:30:00;;;;;;;9.57;2.93;;;7.70;99.90;;;;;;5075364;28;20454;-67
2023/04/30 02:32:27;;;;;;;8.97;3.30;;;7.70;99.90;;;;;;5075467;28;20945;-67
2023/04/30 02:34:55;;;;;;;7.80;3.60;;;7.60;99.90;;;;;;5075537;28;20539;-66
2023/04/30 02:37:22;;;;;;;7.40;2.70;;;7.60;99.90;;;;;;5075388;28;21034;-67
2023/04/30 02:39:49;;;;;;;5.67;2.90;;;7.50;99.90;;;;;;5075044;28;20494;-67
2023/04/30 02:42:16;;;;;;;8.23;3.23;;;7.40;99.90;;;;;;5075666;28;20454;-67
2023/04/30 02:44:43;;;;;;;6.20;3.23;;;7.40;99.90;;;;;;5075817;28;20847;-67
2023/04/30 02:47:10;;;;;;;7.23;3.33;;;7.30;99.90;;;;;;5075187;28;20465;-67
2023/04/30 02:49:37;;;;;;;7.70;3.30;;;7.40;99.90;;;;;;5075632;28;20550;-66
2023/04/30 02:52:06;;;;;;;7.87;3.63;;;7.40;99.90;;;;;;5075218;28;20482;-67
2023/04/30 02:54:32;;;;;;;8.57;3.70;;;7.30;99.90;;;;;;5075440;28;20457;-68
2023/04/30 02:56:59;;;;;;;7.20;3.47;;;7.30;99.90;;;;;;5075548;28;20815;-66
2023/04/30 02:59:26;;;;;;;15.10;3.13;;;7.30;99.90;;;;;;5075114;28;20469;-67
2023/04/30 03:01:53;;;;;;;4.50;2.67;;;7.30;99.90;;;;;;5075859;28;20481;-67
2023/04/30 03:04:20;;;;;;;5.43;3.80;;;7.30;99.90;;;;;;5075328;28;20454;-67
2023/04/30 03:06:47;;;;;;;7.93;3.70;;;7.20;99.90;;;;;;5076403;28;20450;-67
2023/04/30 03:09:15;;;;;;;5.80;3.37;;;7.10;99.90;;;;;;5079220;28;20763;-68
2023/04/30 03:11:42;;;;;;;6.33;2.83;;;7.10;99.90;;;;;;5079222;28;20566;-67
2023/04/30 03:14:09;;;;;;;9.50;3.33;;;7.10;99.90;;;;;;5078969;28;20501;-67
2023/04/30 03:16:36;;;;;;;7.30;3.37;;;7.10;99.90;;;;;;5078854;28;20484;-67
2023/04/30 03:19:03;;;;;;;10.50;3.93;;;7.00;99.90;;;;;;5078752;28;20453;-66
2023/04/30 03:21:29;;;;;;;5.77;2.93;;;7.00;99.90;;;;;;5079425;28;20461;-67
2023/04/30 03:23:56;;;;;;;5.90;3.27;;;6.90;99.90;;;;;;5079685;28;20856;-67
2023/04/30 03:26:24;;;;;;;6.33;3.60;;;6.90;99.90;;;;;;5079093;28;20469;-67
2023/04/30 03:28:53;;;;;;;6.20;3.33;;;7.00;99.90;;;;;;5080112;28;20464;-67
2023/04/30 03:31:20;;;;;;;7.10;3.13;;;6.90;99.90;;;;;;5080724;28;20523;-67
2023/04/30 03:33:47;;;;;;;5.57;3.60;;;6.90;99.90;;;;;;5080362;28;20465;-67
2023/04/30 03:36:14;;;;;;;9.37;3.40;;;6.80;99.90;;;;;;5081451;28;20877;-66
2023/04/30 03:38:41;;;;;;;4.17;2.80;;;6.80;99.90;;;;;;5080725;28;20577;-67
2023/04/30 03:41:08;;;;;;;10.13;4.00;;;6.80;99.90;;;;;;5078645;28;20553;-68
2023/04/30 03:43:36;;;;;;;5.90;3.47;;;6.80;99.90;;;;;;5078494;28;20458;-66
2023/04/30 03:46:03;;;;;;;5.67;3.73;;;6.70;99.90;;;;;;5080454;28;20530;-67
2023/04/30 03:48:30;;;;;;;9.33;4.00;;;6.80;99.90;;;;;;5079753;28;20458;-66
2023/04/30 03:50:57;;;;;;;7.37;3.80;;;6.60;99.90;;;;;;5079692;28;20465;-66
2023/04/30 03:53:25;;;;;;;10.03;3.90;;;6.60;99.90;;;;;;5080628;28;20454;-65
2023/04/30 03:55:53;;;;;;;4.47;3.13;;;6.60;99.90;;;;;;5080134;28;20478;-66
2023/04/30 03:58:20;;;;;;;7.33;4.00;;;6.60;99.90;;;;;;5080699;28;20450;-65
2023/04/30 04:00:48;;;;;;;6.07;3.80;;;6.70;99.90;;;;;;5082887;28;20534;-66
2023/04/30 04:03:15;;;;;;;5.90;3.90;;;6.70;99.90;;;;;;5084961;28;20454;-66
2023/04/30 04:05:42;;;;;;;8.50;3.80;;;6.60;99.90;;;;;;5082490;28;20468;-66
2023/04/30 04:08:10;;;;;;;8.00;4.03;;;6.70;99.90;;;;;;5078799;28;20776;-67
2023/04/30 04:10:37;;;;;;;4.73;3.50;;;6.60;99.90;;;;;;5078748;28;20477;-67
2023/04/30 04:13:04;;;;;;;9.90;3.70;;;6.50;99.90;;;;;;5078372;28;20465;-67
2023/04/30 04:15:30;;;;;;;9.83;4.43;;;6.50;99.90;;;;;;5077419;28;20451;-67
2023/04/30 04:17:59;;;;;;;6.33;3.73;;;6.50;99.90;;;;;;5076605;28;20474;-68
2023/04/30 04:20:26;;;;;;;5.77;3.77;;;6.50;99.90;;;;;;5077365;28;20485;-67
2023/04/30 04:22:53;;;;;;;6.03;4.40;;;6.40;99.90;;;;;;5078398;28;20930;-67
2023/04/30 04:25:23;;;;;;;5.17;3.40;;;6.30;99.90;;;;;;5078713;28;20458;-65
2023/04/30 04:27:51;;;;;;;5.17;4.20;;;6.30;99.90;;;;;;5078542;28;20435;-67
2023/04/30 04:30:18;;;;;;;7.90;3.30;;;6.30;99.90;;;;;;5078541;28;20451;-66
2023/04/30 04:32:47;;;;;;;6.57;3.80;;;6.30;99.90;;;;;;5078005;28;20458;-67
2023/04/30 04:35:15;;;;;;;8.67;4.30;;;6.30;99.90;;;;;;5077471;28;20541;-67
2023/04/30 04:37:42;;;;;;;9.07;4.10;;;6.30;99.90;;;;;;5077597;28;20938;-67
2023/04/30 04:40:10;;;;;;;8.93;4.50;;;6.20;99.90;;;;;;5077436;28;20434;-67
2023/04/30 04:42:38;;;;;;;6.00;3.87;;;6.30;99.90;;;;;;5077638;28;20825;-68
2023/04/30 04:45:06;;;;;;;12.80;3.90;;;6.30;99.90;;;;;;5077551;28;20457;-66
2023/04/30 04:47:33;;;;;;;8.87;3.63;;;6.30;99.90;;;;;;5076943;28;20442;-67
2023/04/30 04:50:00;;;;;;;5.53;4.40;;;6.30;99.90;;;;;;5077212;28;20450;-66
2023/04/30 04:52:28;;;;;;;7.73;4.33;;;6.30;99.90;;;;;;5076699;28;20454;-67
2023/04/30 04:54:55;;;;;;;9.30;4.33;;;6.30;99.90;;;;;;5077220;28;20446;-67
2023/04/30 04:57:22;;;;;;;10.00;3.80;;;6.40;99.90;;;;;;5076678;28;20490;-67
2023/04/30 04:59:49;;;;;;;10.93;4.43;;;6.30;99.90;;;;;;5077239;28;20454;-66
2023/04/30 05:02:16;;;;;;;4.67;3.50;;;6.30;99.90;;;;;;5077509;28;20996;-66
2023/04/30 05:04:42;;;;;;;8.13;3.30;;;6.20;99.90;;;;;;5076840;28;20466;-66
2023/04/30 05:07:10;;;;;;;7.40;4.53;;;6.20;99.90;;;;;;5077044;28;20545;-67
2023/04/30 05:09:38;;;;;;;13.00;4.00;;;6.20;99.90;;;;;;5077220;28;20464;-67
2023/04/30 05:12:05;;;;;;;5.20;3.77;;;6.20;99.90;;;;;;5077095;28;20545;-67
2023/04/30 05:14:32;;;;;;;8.23;4.00;;;6.30;99.90;;;;;;5076680;28;20458;-66
2023/04/30 05:16:59;;;;;;;10.23;4.77;;;6.20;99.90;;;;;;5076831;28;20504;-68
2023/04/30 05:19:26;;;;;;;5.60;3.77;;;6.30;99.90;;;;;;5076630;28;20529;-67
2023/04/30 05:21:53;;;;;;;8.00;4.00;;;6.30;99.90;;;;;;5076596;28;20550;-67
2023/04/30 05:24:19;;;;;;;6.60;4.17;;;6.40;99.90;;;;;;5076781;28;20780;-68
2023/04/30 05:26:48;;;;;;;7.50;4.10;;;6.40;99.90;;;;;;5076705;28;20542;-67
2023/04/30 05:29:14;;;;;;;5.97;4.03;;;6.50;99.90;;;;;;5076720;28;20458;-67
2023/04/30 05:31:41;;;;;;;11.20;4.10;;;6.40;99.90;;;;;;5076504;28;20802;-65
2023/04/30 05:34:08;;;;;;;7.67;4.20;;;6.50;99.90;;;;;;5076163;28;20458;-65
2023/04/30 05:36:35;;;;;;;10.67;4.30;;;6.40;99.90;;;;;;5076629;28;20526;-67
2023/04/30 05:39:02;;;;;;;9.40;4.40;;;6.60;99.90;;;;;;5076453;28;20975;-67
2023/04/30 05:41:28;;;;;;;6.93;3.67;;;6.50;99.90;;;;;;5076365;28;20557;-67
2023/04/30 05:43:57;;;;;;;6.93;4.17;;;6.50;99.90;;;;;;5075770;28;20447;-66
2023/04/30 05:46:23;;;;;;;6.70;4.30;;;6.60;99.90;;;;;;5075352;28;20933;-67
2023/04/30 05:48:50;;;;;;;12.37;4.53;;;6.70;99.90;;;;;;5076123;28;20450;-66
2023/04/30 05:51:17;;;;;;;9.93;4.17;;;6.70;99.90;;;;;;5076261;28;20550;-67
2023/04/30 05:53:44;;;;;;;11.30;4.40;;;6.70;99.90;;;;;;5075900;28;20464;-66
2023/04/30 05:56:11;;;;;;;14.20;4.27;;;6.80;99.90;;;;;;5075860;28;20764;-66
2023/04/30 05:58:38;;;;;;;7.07;4.90;;;6.80;99.90;;;;;;5075884;28;20479;-67
2023/04/30 06:01:09;;;;;;;8.80;3.90;;;6.80;99.90;;;;;;5075499;28;20969;-67
2023/04/30 06:03:37;;;;;;;8.63;3.83;;;6.90;99.90;;;;;;5076346;28;20439;-66
2023/04/30 06:06:04;;;;;;;6.20;3.73;;;7.00;99.90;;;;;;5075547;28;20949;-67
2023/04/30 06:08:31;;;;;;;12.10;3.90;;;7.10;99.90;;;;;;5075391;28;20454;-67
2023/04/30 06:10:59;;;;;;;7.53;4.60;;;7.00;99.90;;;;;;5076142;28;20455;-67
2023/04/30 06:13:26;;;;;;;10.17;4.00;;;7.00;99.90;;;;;;5075870;28;20454;-68
2023/04/30 06:15:53;;;;;;;9.03;4.00;;;7.10;99.90;;;;;;5075860;28;20856;-66
2023/04/30 06:18:21;;;;;;;6.60;3.47;;;7.10;99.90;;;;;;5075593;28;20585;-67
2023/04/30 06:20:48;;;;;;;8.03;3.90;;;7.10;99.90;;;;;;5075560;28;20537;-67
2023/04/30 06:23:15;;;;;;;12.27;4.10;;;7.20;99.90;;;;;;5074917;28;20922;-68
2023/04/30 06:25:42;;;;;;;5.57;3.57;;;7.20;99.90;;;;;;5075645;28;20454;-67
2023/04/30 06:28:08;;;;;;;5.43;3.20;;;7.20;99.90;;;;;;5075607;28;20450;-67
2023/04/30 06:30:36;;;;;;;7.07;3.73;;;7.20;99.90;;;;;;5075436;28;20489;-67
2023/04/30 06:33:03;;;;;;;9.30;4.40;;;7.20;99.90;;;;;;5075512;28;20454;-67
2023/04/30 06:35:32;;;;;;;10.40;3.30;;;7.30;99.90;;;;;;5076682;28;20533;-67
2023/04/30 06:37:58;;;;;;;6.73;4.00;;;7.30;99.90;;;;;;5075446;28;20514;-67
2023/04/30 06:40:25;;;;;;;10.23;3.50;;;7.40;99.90;;;;;;5075884;28;20442;-67
2023/04/30 06:42:53;;;;;;;9.07;4.23;;;7.40;99.90;;;;;;5078728;28;20949;-67
2023/04/30 06:45:20;;;;;;;12.00;3.97;;;7.50;99.90;;;;;;5080334;28;20549;-67
2023/04/30 06:47:47;;;;;;;6.60;3.50;;;7.40;99.90;;;;;;5079443;28;20454;-67
2023/04/30 06:50:15;;;;;;;9.33;3.50;;;7.50;99.90;;;;;;5079985;28;20918;-66
2023/04/30 06:52:43;;;;;;;6.37;3.80;;;7.50;99.90;;;;;;5079974;28;20519;-66
2023/04/30 06:55:11;;;;;;;8.40;3.97;;;7.50;99.90;;;;;;5080652;28;20470;-66
2023/04/30 06:57:38;;;;;;;7.50;4.00;;;7.60;99.90;;;;;;5080612;28;20508;-66
2023/04/30 07:00:06;;;;;;;5.50;3.87;;;7.60;99.90;;;;;;5080076;28;20454;-66
2023/04/30 07:02:33;;;;;;;12.47;3.80;;;7.60;99.90;;;;;;5079296;28;20927;-67
2023/04/30 07:05:00;;;;;;;7.43;3.60;;;7.60;99.90;;;;;;5079349;28;20787;-67
2023/04/30 07:07:27;;;;;;;10.30;3.70;;;7.40;99.90;;;;;;5078936;28;20541;-67
2023/04/30 07:09:55;;;;;;;7.33;4.07;;;7.50;99.90;;;;;;5079397;28;20864;-67
2023/04/30 07:12:23;;;;;;;12.50;4.10;;;7.60;99.90;;;;;;5079812;28;20545;-67
2023/04/30 07:14:49;;;;;;;5.97;3.23;;;7.60;99.90;;;;;;5079261;28;20460;-66
2023/04/30 07:17:16;;;;;;;6.80;3.77;;;7.70;99.90;;;;;;5078345;28;20474;-66
2023/04/30 07:19:43;;;;;;;7.27;3.97;;;7.70;99.90;;;;;;5079002;28;20468;-66
2023/04/30 07:22:10;;;;;;;12.37;3.60;;;7.80;99.90;;;;;;5079544;28;20468;-66
2023/04/30 07:24:37;;;;;;;9.30;3.50;;;7.90;99.90;;;;;;5080032;28;20556;-66
2023/04/30 07:27:06;;;;;;;4.07;3.00;;;7.90;99.90;;;;;;5079330;28;20462;-66
2023/04/30 07:29:33;;;;;;;8.53;3.97;;;8.00;99.90;;;;;;5077180;28;20466;-66
2023/04/30 07:32:00;;;;;;;8.00;3.50;;;8.10;99.90;;;;;;5077571;28;20453;-65
2023/04/30 07:34:27;;;;;;;9.70;3.57;;;8.20;99.90;;;;;;5077736;28;20494;-65
2023/04/30 07:36:54;;;;;;;7.57;3.40;;;8.20;99.90;;;;;;5079033;28;20454;-65
2023/04/30 07:39:21;;;;;;;5.77;3.30;;;8.20;99.90;;;;;;5078926;28;20490;-65
2023/04/30 07:41:47;;;;;;;7.13;2.93;;;8.30;99.90;;;;;;5078729;28;20457;-66
2023/04/30 07:44:16;;;;;;;8.57;3.70;;;8.30;99.90;;;;;;5077153;28;20494;-66
2023/04/30 07:46:43;;;;;;;7.03;3.20;;;8.30;99.90;;;;;;5077637;28;20458;-65
2023/04/30 07:49:10;;;;;;;6.53;3.50;;;8.30;99.90;;;;;;5077091;28;20919;-66
2023/04/30 07:51:37;;;;;;;8.60;3.90;;;8.20;99.90;;;;;;5076907;28;20454;-68
2023/04/30 07:54:04;;;;;;;8.57;3.67;;;8.20;99.90;;;;;;5076048;28;20458;-65
2023/04/30 07:56:32;;;;;;;6.83;4.20;;;8.30;99.90;;;;;;5077320;28;20780;-66
2023/04/30 07:58:58;;;;;;;9.13;3.73;;;8.40;99.90;;;;;;5077217;28;20570;-66
2023/04/30 08:01:27;;;;;;;11.97;3.27;;;8.30;99.90;;;;;;5077036;28;20458;-67
2023/04/30 08:03:53;;;;;;;6.80;3.30;;;8.30;99.90;;;;;;5076956;28;20458;-66
2023/04/30 08:06:20;;;;;;;6.23;3.33;;;8.40;99.90;;;;;;5078515;28;20454;-66
2023/04/30 08:08:47;;;;;;;8.53;3.40;;;8.50;99.90;;;;;;5079633;28;20450;-66
2023/04/30 08:11:15;;;;;;;5.53;3.10;;;8.60;99.90;;;;;;5078949;28;20950;-68
2023/04/30 08:13:43;;;;;;;8.13;3.40;;;8.60;99.90;;;;;;5079096;28;20511;-66
2023/04/30 08:16:09;;;;;;;6.23;2.83;;;8.70;99.90;;;;;;5079187;28;20485;-66
2023/04/30 08:18:42;;;;;;;9.37;3.73;;;8.70;99.90;;;;;;5079371;28;20810;-66
2023/04/30 08:21:10;;;;;;;7.20;3.23;;;8.70;99.90;;;;;;5079050;28;20443;-67
2023/04/30 08:23:37;;;;;;;4.30;3.17;;;8.70;99.90;;;;;;5078869;28;20519;-67
2023/04/30 08:26:04;;;;;;;6.50;3.30;;;8.80;99.90;;;;;;5078433;28;20468;-67
2023/04/30 08:28:30;;;;;;;5.77;3.20;;;8.90;99.90;;;;;;5080403;28;20450;-66
2023/04/30 08:30:58;;;;;;;9.57;3.13;;;8.80;99.90;;;;;;5080773;28;20541;-66
2023/04/30 08:33:24;;;;;;;4.80;3.23;;;8.80;99.90;;;;;;5079051;28;20454;-66
2023/04/30 08:35:53;;;;;;;8.63;3.40;;;8.90;99.90;;;;;;5077921;28;20497;-67
2023/04/30 08:38:20;;;;;;;6.60;3.70;;;8.90;99.90;;;;;;5077165;28;20493;-66
2023/04/30 08:40:57;;;;;;;7.83;2.87;;;8.90;99.90;;;;;;5077445;28;20986;-67
2023/04/30 08:43:24;;;;;;;4.30;2.53;;;9.00;99.90;;;;;;5078435;28;20449;-67
2023/04/30 08:45:51;;;;;;;9.30;2.37;;;9.00;99.90;;;;;;5077929;28;20990;-66
2023/04/30 08:48:21;;;;;;;7.30;2.33;;;9.10;99.90;;;;;;5077778;28;20515;-67
2023/04/30 08:50:48;;;;;;;4.57;2.70;;;9.20;99.90;;;;;;5077177;28;20454;-67
2023/04/30 08:53:19;;;;;;;5.87;2.90;;;9.20;99.90;;;;;;5077662;28;20454;-66
2023/04/30 08:55:47;;;;;;;5.70;2.43;;;9.20;99.90;;;;;;5077317;28;20446;-67
2023/04/30 08:58:14;;;;;;;8.30;2.80;;;9.30;99.90;;;;;;5078082;28;20668;-68
2023/04/30 09:00:41;;;;;;;3.83;2.70;;;9.30;99.90;;;;;;5076939;28;20458;-67
2023/04/30 09:03:08;;;;;;;3.50;2.17;;;9.30;99.90;;;;;;5076877;28;20545;-67
2023/04/30 09:05:37;;;;;;;6.77;3.50;;;9.30;99.90;;;;;;5076539;28;20490;-67
2023/04/30 09:08:06;;;;;;;4.17;2.50;;;9.40;99.90;;;;;;5077145;28;20454;-67
2023/04/30 09:10:35;;;;;;;3.40;2.00;;;9.40;99.90;;;;;;5077405;28;20533;-66
2023/04/30 09:13:04;;;;;;;3.63;2.00;;;9.50;97.10;;;;;;5077793;28;20921;-67
2023/04/30 09:15:32;;;;;;;9.10;3.93;;;9.60;95.70;;;;;;5077713;28;20497;-67
2023/04/30 09:18:11;;;;;;;5.73;2.57;;;9.60;94.30;;;;;;5077522;28;20880;-66
2023/04/30 09:20:38;;;;;;;3.80;2.13;;;9.60;97.50;;;;;;5077567;28;20465;-66
2023/04/30 09:23:07;;;;;;;2.93;2.40;;;9.60;96.20;;;;;;5077054;28;20458;-66
2023/04/30 09:25:42;;;;;;;4.63;2.07;;;9.70;94.40;;;;;;5077440;28;20473;-66
2023/04/30 09:28:10;;;;;;;4.57;2.27;;;9.80;95.60;;;;;;5076846;28;20532;-65
2023/04/30 09:30:38;;;;;;;4.20;2.00;;;9.90;92.50;;;;;;5076701;28;20500;-67
2023/04/30 09:33:05;;;;;;;3.03;2.33;;;9.90;90.30;;;;;;5077387;28;20482;-65
2023/04/30 09:35:33;;;;;;;2.60;2.00;;;10.00;86.10;;;;;;5076562;28;20927;-65
2023/04/30 09:38:01;;;;;;;4.67;2.13;;;10.10;80.30;;;;;;5076498;28;20548;-67
2023/04/30 09:40:39;;;;;;;3.17;2.07;;;10.00;80.60;;;;;;5077136;28;20438;-67
2023/04/30 09:43:07;;;;;;;4.37;2.40;;;10.00;79.70;;;;;;5076815;28;20458;-68
2023/04/30 09:45:47;;;;;;;4.30;2.97;;;10.00;78.70;;;;;;5076374;28;20519;-66
2023/04/30 09:48:15;;;;;;;6.70;2.40;;;10.10;77.90;;;;;;5075240;28;21015;-67
2023/04/30 09:50:43;;;;;;;5.33;1.87;;;10.30;75.20;;;;;;5075521;28;20454;-67
2023/04/30 09:53:16;;;;;;;2.53;2.03;;;10.40;70.70;;;;;;5075875;28;20557;-67
2023/04/30 09:55:45;;;;;;;2.40;1.83;;;10.40;66.60;;;;;;5076589;28;20438;-67
2023/04/30 09:58:15;;;;;;;4.00;2.10;;;10.40;67.30;;;;;;5077219;28;20493;-68
2023/04/30 10:00:43;;;;;;;4.70;2.30;;;10.40;68.80;;;;;;5076567;28;20469;-68
2023/04/30 10:03:11;;;;;;;4.37;2.50;;;10.50;70.20;;;;;;5077047;28;20780;-68
2023/04/30 10:05:41;;;;;;;5.83;2.93;;;10.50;73.60;;;;;;5079194;28;20454;-68
2023/04/30 10:08:16;;;;;;;6.33;2.50;;;10.60;72.60;;;;;;5078183;28;20584;-68
2023/04/30 10:10:45;;;;;;;2.80;2.50;;;10.50;70.90;;;;;;5077205;28;20470;-68
2023/04/30 10:13:18;;;;;;;5.33;2.70;;;10.60;74.30;;;;;;5077562;28;20536;-68
2023/04/30 10:15:51;;;;;;;4.80;2.30;;;10.60;76.60;;;;;;5076586;28;20521;-68
2023/04/30 10:18:22;;;;;;;7.23;2.77;;;10.70;72.00;;;;;;5075567;28;20470;-68
2023/04/30 10:20:53;;;;;;;7.27;2.63;;;10.70;72.20;;;;;;5076410;28;20571;-68
2023/04/30 10:23:21;;;;;;;3.57;2.60;;;10.80;69.10;;;;;;5076553;28;20466;-68
2023/04/30 10:25:48;;;;;;;5.63;2.60;;;10.80;69.70;;;;;;5076811;28;20454;-68
2023/04/30 10:28:17;;;;;;;5.20;2.70;;;10.80;70.00;;;;;;5076727;28;20549;-67
2023/04/30 10:30:44;;;;;;;6.40;2.43;;;10.90;70.60;;;;;;5076647;28;20553;-67
2023/04/30 10:33:18;;;;;;;2.67;2.20;;;10.90;69.80;;;;;;5075580;28;20550;-67
2023/04/30 10:35:49;;;;;;;7.03;2.17;;;10.90;70.70;;;;;;5075158;28;20849;-68
2023/04/30 10:38:22;;;;;;;4.10;2.47;;;10.90;72.10;;;;;;5075001;28;20521;-68
2023/04/30 10:40:49;;;;;;;6.67;2.60;;;10.90;71.40;;;;;;5075686;28;20453;-67
2023/04/30 10:43:20;;;;;;;6.10;2.40;;;10.90;73.60;;;;;;5075465;28;20486;-67
2023/04/30 10:45:48;;;;;;;5.60;2.90;;;11.00;75.50;;;;;;5075282;28;20504;-68
2023/04/30 10:48:23;;;;;;;3.90;2.40;;;11.10;75.10;;;;;;5075490;28;20458;-68
2023/04/30 10:50:51;;;;;;;4.87;2.20;;;11.10;71.60;;;;;;5075781;28;20441;-66
2023/04/30 10:53:21;;;;;;;3.20;2.40;;;11.10;67.70;;;;;;5075130;28;20461;-69
2023/04/30 10:55:54;;;;;;;5.10;3.00;;;11.20;68.50;;;;;;5075163;28;20454;-69
2023/04/30 10:58:27;;;;;;;2.10;1.80;;;11.30;69.30;;;;;;5075297;28;20939;-68
2023/04/30 11:01:03;;;;;;;4.07;2.20;;;11.40;70.30;;;;;;5075665;28;20834;-68
2023/04/30 11:03:31;;;;;;;2.67;2.37;;;11.40;67.40;;;;;;5075086;28;20798;-68
2023/04/30 11:06:02;;;;;;;5.17;2.30;;;11.40;66.30;;;;;;5075466;28;20519;-68
2023/04/30 11:08:36;;;;;;;5.20;2.63;;;11.50;67.80;;;;;;5075239;28;20533;-68
2023/04/30 11:11:04;;;;;;;5.67;2.40;;;11.50;67.80;;;;;;5075098;28;20464;-68
2023/04/30 11:13:41;;;;;;;4.50;2.70;;;11.70;68.70;;;;;;5075862;28;20462;-68
2023/04/30 11:16:08;;;;;;;10.57;2.50;;;11.80;69.00;;;;;;5075423;28;20443;-68
2023/04/30 11:18:42;;;;;;;3.93;2.43;;;12.50;67.30;;;;;;5075491;28;20496;-66
2023/04/30 11:21:09;;;;;;;6.40;2.47;;;13.70;64.00;;;;;;5076018;28;20468;-68
2023/04/30 11:23:36;;;;;;;3.20;1.40;;;15.20;58.00;;;;;;5077312;28;20512;-68
2023/04/30 11:26:03;;;;;;;4.97;2.17;;;16.80;56.50;;;;;;5079093;28;20465;-68
2023/04/30 11:28:34;;;;;;;5.70;2.50;;;18.30;48.10;;;;;;5081598;28;20588;-68
2023/04/30 11:31:02;;;;;;;4.87;2.10;;;19.20;41.60;;;;;;5082853;28;20496;-68
2023/04/30 11:33:31;;;;;;;4.00;2.03;;;18.80;38.40;;;;;;5081340;28;20450;-68
2023/04/30 11:36:00;;;;;;;4.10;2.00;;;18.90;37.90;;;;;;5081674;28;20833;-68
2023/04/30 11:38:28;;;;;;;2.47;2.10;;;19.10;36.10;;;;;;5081666;28;20509;-68
2023/04/30 11:40:56;;;;;;;6.13;2.13;;;18.90;33.80;;;;;;5079736;28;20473;-68
2023/04/30 11:43:24;;;;;;;4.03;2.00;;;18.20;34.40;;;;;;5081490;28;20468;-67
2023/04/30 11:46:08;;;;;;;6.50;2.53;;;19.00;33.90;;;;;;5082700;28;20454;-68
2023/04/30 11:48:36;;;;;;;4.60;3.33;;;19.30;33.20;;;;;;5082151;28;20485;-67
2023/04/30 11:51:05;;;;;;;3.87;2.57;;;19.90;32.90;;;;;;5081506;28;20919;-67
2023/04/30 11:53:32;;;;;;;4.80;2.80;;;20.80;31.00;;;;;;5081511;28;20469;-67
2023/04/30 11:56:03;;;;;;;5.90;2.40;;;21.20;29.80;;;;;;5082130;28;20737;-67
2023/04/30 11:58:34;;;;;;;3.30;2.20;;;22.20;29.00;;;;;;5082113;28;20458;-67
2023/04/30 12:01:01;;;;;;;3.50;2.03;;;22.10;27.90;;;;;;5082856;28;20474;-69
2023/04/30 12:03:30;;;;;;;4.90;2.00;;;21.40;28.20;;;;;;5082704;28;20462;-67
2023/04/30 12:05:57;;;;;;;5.63;2.53;;;21.70;27.70;;;;;;5083638;28;20454;-67
2023/04/30 12:08:24;;;;;;;3.20;1.80;;;22.30;27.90;;;;;;5082982;28;20494;-67
2023/04/30 12:10:51;;;;;;;4.30;2.27;;;22.40;26.40;;;;;;5083115;28;20550;-68
2023/04/30 12:13:18;;;;;;;5.33;2.30;;;22.40;25.70;;;;;;5082713;28;20541;-68
2023/04/30 12:15:58;;;;;;;4.13;1.73;;;22.10;25.90;;;;;;5083448;28;20458;-67
2023/04/30 12:18:25;;;;;;;4.27;2.20;;;21.70;26.60;;;;;;5080973;28;20445;-68
2023/04/30 12:20:54;;;;;;;5.07;2.27;;;22.60;26.90;;;;;;5081626;28;20458;-68
2023/04/30 12:23:23;;;;;;;3.13;2.40;;;23.30;25.40;;;;;;5081351;28;20458;-68
2023/04/30 12:25:51;;;;;;;6.27;2.70;;;22.90;24.90;;;;;;5080850;28;20545;-69
2023/04/30 12:28:18;;;;;;;4.93;2.40;;;22.70;25.00;;;;;;5081113;28;20481;-67
2023/04/30 12:30:45;;;;;;;2.90;2.13;;;23.10;25.40;;;;;;5079875;28;20784;-68
2023/04/30 12:33:11;;;;;;;6.83;2.90;;;23.80;25.20;;;;;;5079271;28;20541;-68
2023/04/30 12:35:43;;;;;;;7.60;2.57;;;24.00;23.60;;;;;;5080381;28;20542;-67
2023/04/30 12:38:11;;;;;;;3.57;2.20;;;24.30;23.80;;;;;;5080116;28;20566;-68
2023/04/30 12:40:39;;;;;;;2.57;2.03;;;24.60;23.50;;;;;;5078930;28;20561;-68
2023/04/30 12:43:08;;;;;;;7.10;2.50;;;25.00;23.20;;;;;;5078105;28;20846;-68
2023/04/30 12:45:43;;;;;;;2.77;2.30;;;25.90;22.90;;;;;;5077470;28;20497;-68
2023/04/30 12:48:10;;;;;;;2.10;1.83;;;27.00;22.90;;;;;;5077419;28;20457;-67
2023/04/30 12:50:38;;;;;;;3.27;2.43;;;27.20;20.10;;;;;;5077054;28;20785;-67
2023/04/30 12:53:06;;;;;;;8.87;2.80;;;27.20;20.20;;;;;;5077549;28;20493;-68
2023/04/30 12:55:36;;;;;;;5.03;2.50;;;27.00;19.90;;;;;;5078515;28;20458;-68
2023/04/30 12:58:05;;;;;;;3.83;2.57;;;27.60;20.50;;;;;;5079058;28;20892;-69